createdAt,value
2022-09-24T00:00:32.329Z,77.17
2022-09-24T00:01:32.392Z,77.10
2022-09-24T00:02:32.368Z,76.96
2022-09-24T00:03:32.383Z,76.96
2022-09-24T00:04:32.294Z,77.10
2022-09-24T00:05:32.245Z,77.74
2022-09-24T00:06:32.273Z,76.39
2022-09-24T00:07:32.234Z,75.57
2022-09-24T00:08:32.239Z,75.57
2022-09-24T00:09:32.215Z,74.29
2022-09-24T00:10:32.184Z,74.03
2022-09-24T00:11:32.175Z,74.49
2022-09-24T00:12:32.174Z,73.57
2022-09-24T00:13:32.193Z,73.45
2022-09-24T00:14:32.152Z,73.25
2022-09-24T00:15:32.116Z,73.00
2022-09-24T00:16:32.168Z,72.68
2022-09-24T00:17:32.113Z,72.24
2022-09-24T00:18:32.085Z,72.24
2022-09-24T00:19:32.058Z,72.12
2022-09-24T00:20:32.101Z,71.50
2022-09-24T00:21:32.031Z,71.75
2022-09-24T00:22:32.020Z,71.75
2022-09-24T00:23:32.015Z,71.69
2022-09-24T00:24:32.025Z,71.56
2022-09-24T00:25:31.978Z,71.56
2022-09-24T00:26:31.984Z,71.02
2022-09-24T00:27:31.986Z,69.89
2022-09-24T00:28:31.985Z,69.20
2022-09-24T00:29:31.978Z,68.69
2022-09-24T00:30:31.989Z,68.46
2022-09-24T00:31:32.017Z,68.18
2022-09-24T00:32:31.964Z,67.96
2022-09-24T00:33:31.901Z,67.63
2022-09-24T00:34:31.895Z,67.53
2022-09-24T00:35:31.876Z,66.67
2022-09-24T00:36:31.865Z,65.62
2022-09-24T00:37:31.854Z,65.36
2022-09-24T00:38:31.828Z,65.16
2022-09-24T00:39:31.816Z,64.56
2022-09-24T00:40:31.832Z,64.81
2022-09-24T00:41:31.799Z,65.31
2022-09-24T00:42:31.796Z,66.56
2022-09-24T00:43:31.803Z,67.58
2022-09-24T00:44:31.761Z,68.13
2022-09-24T00:45:31.730Z,68.63
2022-09-24T00:46:31.810Z,68.69
2022-09-24T00:47:31.749Z,68.35
2022-09-24T00:48:31.732Z,67.85
2022-09-24T00:49:31.708Z,66.82
2022-09-24T00:50:31.700Z,65.83
2022-09-24T00:51:31.648Z,65.26
2022-09-24T00:52:31.750Z,65.26
2022-09-24T00:53:31.620Z,65.57
2022-09-24T00:54:31.699Z,66.56
2022-09-24T00:55:31.602Z,67.53
2022-09-24T00:56:31.604Z,68.29
2022-09-24T00:57:31.604Z,68.52
2022-09-24T00:58:31.557Z,68.69
2022-09-24T00:59:31.535Z,68.63
2022-09-24T01:00:31.636Z,68.63
2022-09-24T01:01:31.521Z,68.57
2022-09-24T01:02:31.615Z,67.74
2022-09-24T01:03:31.535Z,66.72
2022-09-24T01:04:31.526Z,67.15
2022-09-24T01:05:31.464Z,66.67
2022-09-24T01:06:31.467Z,66.61
2022-09-24T01:07:31.444Z,66.19
2022-09-24T01:08:31.440Z,66.03
2022-09-24T01:09:31.451Z,65.98
2022-09-24T01:10:31.406Z,65.78
2022-09-24T01:11:31.386Z,65.67
2022-09-24T01:12:31.370Z,64.71
2022-09-24T01:13:31.354Z,64.16
2022-09-24T01:14:31.338Z,64.21
2022-09-24T01:15:31.334Z,63.97
2022-09-24T01:16:31.400Z,63.97
2022-09-24T01:17:31.313Z,64.61
2022-09-24T01:18:31.354Z,64.41
2022-09-24T01:19:31.274Z,64.11
2022-09-24T01:20:31.299Z,63.19
2022-09-24T01:21:31.244Z,63.05
2022-09-24T01:22:31.292Z,62.86
2022-09-24T01:23:31.250Z,62.91
2022-09-24T01:24:31.228Z,63.15
2022-09-24T01:25:31.204Z,63.24
2022-09-24T01:26:31.258Z,63.38
2022-09-24T01:27:31.171Z,63.15
2022-09-24T01:28:31.170Z,63.19
2022-09-24T01:29:31.167Z,63.29
2022-09-24T01:30:31.131Z,63.29
2022-09-24T01:31:31.194Z,62.86
2022-09-24T01:32:32.593Z,63.10
2022-09-24T01:33:31.103Z,63.19
2022-09-24T01:34:31.098Z,63.53
2022-09-24T01:35:31.128Z,63.97
2022-09-24T01:36:31.066Z,64.66
2022-09-24T01:37:31.038Z,65.62
2022-09-24T01:38:31.081Z,66.14
2022-09-24T01:39:31.014Z,67.15
2022-09-24T01:40:31.067Z,67.31
2022-09-24T01:41:31.042Z,67.74
2022-09-24T01:42:30.991Z,67.96
2022-09-24T01:43:30.971Z,67.58
2022-09-24T01:44:30.968Z,67.80
2022-09-24T01:45:30.954Z,68.02
2022-09-24T01:46:31.007Z,68.35
2022-09-24T01:47:34.326Z,68.46
2022-09-24T01:48:30.943Z,67.96
2022-09-24T01:49:30.901Z,68.52
2022-09-24T01:50:30.880Z,69.37
2022-09-24T01:51:30.890Z,69.37
2022-09-24T01:52:30.910Z,69.31
2022-09-24T01:53:30.848Z,69.37
2022-09-24T01:54:30.849Z,69.03
2022-09-24T01:55:30.818Z,69.31
2022-09-24T01:56:30.810Z,70.07
2022-09-24T01:57:30.784Z,70.72
2022-09-24T01:58:30.809Z,71.14
2022-09-24T01:59:30.758Z,72.06
2022-09-24T02:00:30.840Z,72.62
2022-09-24T02:01:30.748Z,73.45
2022-09-24T02:02:30.771Z,74.49
2022-09-24T02:03:30.712Z,75.36
2022-09-24T02:04:30.742Z,76.05
2022-09-24T02:05:30.707Z,76.19
2022-09-24T02:06:30.673Z,76.05
2022-09-24T02:07:30.662Z,75.84
2022-09-24T02:08:30.669Z,76.05
2022-09-24T02:09:30.628Z,75.23
2022-09-24T02:10:30.608Z,74.82
2022-09-24T02:11:30.613Z,74.49
2022-09-24T02:12:30.600Z,74.36
2022-09-24T02:13:30.594Z,74.43
2022-09-24T02:14:30.569Z,74.36
2022-09-24T02:15:32.728Z,73.90
2022-09-24T02:16:30.602Z,73.13
2022-09-24T02:17:30.545Z,74.49
2022-09-24T02:18:30.528Z,74.62
2022-09-24T02:19:30.506Z,74.43
2022-09-24T02:20:30.546Z,75.70
2022-09-24T02:21:30.487Z,76.05
2022-09-24T02:22:30.470Z,77.10
2022-09-24T02:23:30.451Z,78.18
2022-09-24T02:24:30.429Z,78.32
2022-09-24T02:25:30.409Z,77.67
2022-09-24T02:26:30.423Z,78.54
2022-09-24T02:27:30.384Z,78.69
2022-09-24T02:28:30.391Z,78.69
2022-09-24T02:29:30.376Z,78.03
2022-09-24T02:30:30.351Z,78.40
2022-09-24T02:31:30.395Z,78.84
2022-09-24T02:32:30.344Z,79.97
2022-09-24T02:33:30.318Z,80.51
2022-09-24T02:34:30.294Z,81.45
2022-09-24T02:35:30.270Z,81.29
2022-09-24T02:36:30.277Z,81.61
2022-09-24T02:37:30.277Z,81.45
2022-09-24T02:38:30.268Z,82.49
2022-09-24T02:39:30.249Z,83.23
2022-09-24T02:40:30.259Z,83.39
2022-09-24T02:41:30.210Z,84.06
2022-09-24T02:42:30.218Z,85.17
2022-09-24T02:43:30.206Z,86.76
2022-09-24T02:44:30.156Z,89.16
2022-09-24T02:45:30.147Z,91.70
2022-09-24T02:46:30.178Z,94.39
2022-09-24T02:47:30.165Z,95.14
2022-09-24T02:48:30.118Z,96.04
2022-09-24T02:49:30.088Z,99.29
2022-09-24T02:50:30.105Z,100.90
2022-09-24T02:51:30.074Z,102.76
2022-09-24T02:52:30.052Z,103.71
2022-09-24T02:53:30.039Z,104.56
2022-09-24T02:54:30.027Z,104.17
2022-09-24T02:55:30.001Z,102.89
2022-09-24T02:56:30.031Z,102.89
2022-09-24T02:57:29.999Z,103.08
2022-09-24T02:58:29.996Z,101.70
2022-09-24T02:59:29.954Z,101.21
2022-09-24T03:00:29.976Z,100.24
2022-09-24T03:01:30.031Z,101.51
2022-09-24T03:02:29.996Z,102.89
2022-09-24T03:03:29.915Z,102.95
2022-09-24T03:04:29.907Z,102.70
2022-09-24T03:05:29.899Z,102.32
2022-09-24T03:06:29.894Z,102.57
2022-09-24T03:07:29.870Z,102.45
2022-09-24T03:08:29.855Z,102.20
2022-09-24T03:09:29.863Z,102.63
2022-09-24T03:10:29.833Z,101.95
2022-09-24T03:11:29.810Z,101.89
2022-09-24T03:12:29.787Z,101.89
2022-09-24T03:13:29.780Z,102.20
2022-09-24T03:14:29.795Z,103.01
2022-09-24T03:15:29.763Z,104.49
2022-09-24T03:16:29.803Z,105.15
2022-09-24T03:17:29.720Z,108.69
2022-09-24T03:18:29.702Z,113.79
2022-09-24T03:19:29.702Z,116.16
2022-09-24T03:20:29.705Z,118.29
2022-09-24T03:21:29.670Z,119.81
2022-09-24T03:22:29.662Z,121.64
2022-09-24T03:23:29.652Z,122.80
2022-09-24T03:24:29.646Z,123.80
2022-09-24T03:25:29.668Z,123.53
2022-09-24T03:26:29.624Z,124.07
2022-09-24T03:27:29.575Z,126.42
2022-09-24T03:28:29.593Z,129.54
2022-09-24T03:29:29.595Z,129.24
2022-09-24T03:30:29.569Z,131.79
2022-09-24T03:31:29.636Z,131.89
2022-09-24T03:32:29.533Z,131.37
2022-09-24T03:33:29.502Z,131.48
2022-09-24T03:34:29.498Z,128.95
2022-09-24T03:35:29.535Z,129.54
2022-09-24T03:36:29.501Z,129.95
2022-09-24T03:37:29.460Z,131.58
2022-09-24T03:38:29.468Z,131.27
2022-09-24T03:39:29.434Z,131.58
2022-09-24T03:40:29.466Z,130.96
2022-09-24T03:41:29.408Z,129.24
2022-09-24T03:42:29.420Z,130.96
2022-09-24T03:43:29.395Z,131.27
2022-09-24T03:44:29.378Z,131.27
2022-09-24T03:45:29.357Z,131.68
2022-09-24T03:46:29.432Z,130.96
2022-09-24T03:47:29.332Z,131.99
2022-09-24T03:48:29.321Z,130.25
2022-09-24T03:49:29.291Z,129.54
2022-09-24T03:50:29.297Z,127.18
2022-09-24T03:51:29.304Z,124.72
2022-09-24T03:52:29.268Z,122.71
2022-09-24T03:53:29.296Z,121.55
2022-09-24T03:54:29.267Z,118.79
2022-09-24T03:55:29.240Z,116.81
2022-09-24T03:56:29.195Z,114.18
2022-09-24T03:57:29.195Z,114.10
2022-09-24T03:58:29.180Z,112.79
2022-09-24T03:59:29.188Z,111.44
2022-09-24T04:00:29.174Z,109.48
2022-09-24T04:01:29.214Z,108.77
2022-09-24T04:02:29.138Z,107.30
2022-09-24T04:03:29.115Z,105.61
2022-09-24T04:04:29.138Z,104.43
2022-09-24T04:05:29.113Z,103.59
2022-09-24T04:06:29.077Z,102.20
2022-09-24T04:07:29.083Z,101.45
2022-09-24T04:08:29.040Z,100.30
2022-09-24T04:09:29.047Z,100.48
2022-09-24T04:10:29.018Z,99.70
2022-09-24T04:11:29.016Z,98.18
2022-09-24T04:12:29.006Z,97.21
2022-09-24T04:13:29.025Z,96.82
2022-09-24T04:14:28.949Z,97.72
2022-09-24T04:15:28.991Z,98.70
2022-09-24T04:16:29.075Z,99.00
2022-09-24T04:17:28.974Z,100.00
2022-09-24T04:18:28.941Z,100.36
2022-09-24T04:19:28.931Z,100.06
2022-09-24T04:20:28.916Z,102.38
2022-09-24T04:21:28.896Z,104.10
2022-09-24T04:22:28.869Z,104.04
2022-09-24T04:23:28.852Z,102.76
2022-09-24T04:24:28.853Z,102.89
2022-09-24T04:25:28.824Z,102.57
2022-09-24T04:26:28.819Z,102.51
2022-09-24T04:27:28.829Z,101.33
2022-09-24T04:28:28.778Z,99.76
2022-09-24T04:29:28.776Z,99.70
2022-09-24T04:30:28.798Z,99.82
2022-09-24T04:31:28.797Z,98.82
2022-09-24T04:32:28.718Z,98.07
2022-09-24T04:33:28.737Z,97.67
2022-09-24T04:34:28.684Z,97.04
2022-09-24T04:35:28.678Z,96.99
2022-09-24T04:36:28.693Z,96.60
2022-09-24T04:37:28.702Z,94.21
2022-09-24T04:38:28.642Z,95.57
2022-09-24T04:39:28.627Z,94.39
2022-09-24T04:40:28.647Z,93.23
2022-09-24T04:41:28.620Z,92.72
2022-09-24T04:42:28.620Z,91.20
2022-09-24T04:43:28.625Z,91.60
2022-09-24T04:44:28.585Z,90.22
2022-09-24T04:45:28.547Z,89.93
2022-09-24T04:46:28.576Z,90.12
2022-09-24T04:47:28.562Z,91.20
2022-09-24T04:48:28.546Z,91.40
2022-09-24T04:49:28.525Z,90.71
2022-09-24T04:50:28.564Z,90.12
2022-09-24T04:51:28.499Z,89.35
2022-09-24T04:52:28.472Z,88.50
2022-09-24T04:53:28.440Z,87.76
2022-09-24T04:54:28.483Z,87.03
2022-09-24T04:55:28.417Z,87.40
2022-09-24T04:56:28.403Z,87.31
2022-09-24T04:57:28.418Z,88.79
2022-09-24T04:58:28.414Z,88.04
2022-09-24T04:59:28.415Z,88.22
2022-09-24T05:00:28.381Z,90.32
2022-09-24T05:01:28.416Z,91.80
2022-09-24T05:02:28.377Z,93.96
2022-09-24T05:03:28.339Z,95.57
2022-09-24T05:04:28.342Z,94.63
2022-09-24T05:05:28.311Z,95.46
2022-09-24T05:06:28.461Z,95.25
2022-09-24T05:07:28.327Z,95.36
2022-09-24T05:08:28.288Z,94.82
2022-09-24T05:09:28.250Z,94.28
2022-09-24T05:10:28.253Z,93.03
2022-09-24T05:11:28.220Z,92.11
2022-09-24T05:12:28.225Z,90.61
2022-09-24T05:13:28.195Z,89.74
2022-09-24T05:14:28.179Z,89.93
2022-09-24T05:15:28.188Z,91.60
2022-09-24T05:16:28.194Z,93.65
2022-09-24T05:17:28.144Z,93.89
2022-09-24T05:18:28.155Z,96.49
2022-09-24T05:19:28.146Z,98.64
2022-09-24T05:20:28.122Z,101.21
2022-09-24T05:21:28.115Z,102.89
2022-09-24T05:22:28.083Z,106.35
2022-09-24T05:23:28.146Z,108.27
2022-09-24T05:24:28.068Z,109.84
2022-09-24T05:25:28.101Z,111.74
2022-09-24T05:26:28.017Z,114.65
2022-09-24T05:27:28.015Z,116.16
2022-09-24T05:28:28.022Z,118.71
2022-09-24T05:29:28.051Z,120.76
2022-09-24T05:30:27.948Z,121.29
2022-09-24T05:31:28.104Z,122.71
2022-09-24T05:32:27.914Z,124.54
2022-09-24T05:33:27.968Z,125.47
2022-09-24T05:34:27.941Z,127.18
2022-09-24T05:35:27.905Z,129.74
2022-09-24T05:36:27.887Z,130.25
2022-09-24T05:37:27.916Z,129.14
2022-09-24T05:38:27.914Z,127.76
2022-09-24T05:39:32.824Z,125.66
2022-09-24T05:40:27.919Z,124.44
2022-09-24T05:41:27.832Z,124.07
2022-09-24T05:42:27.856Z,124.81
2022-09-24T05:43:27.823Z,125.94
2022-09-24T05:44:27.798Z,128.06
2022-09-24T05:45:27.759Z,129.84
2022-09-24T05:46:27.839Z,130.55
2022-09-24T05:47:27.752Z,129.64
2022-09-24T05:48:27.721Z,128.55
2022-09-24T05:49:27.729Z,130.35
2022-09-24T05:50:27.777Z,132.10
2022-09-24T05:51:27.694Z,133.15
2022-09-24T05:52:27.674Z,133.47
2022-09-24T05:53:27.666Z,135.30
2022-09-24T05:54:27.699Z,137.75
2022-09-24T05:55:31.996Z,140.40
2022-09-24T05:56:27.599Z,143.28
2022-09-24T05:57:27.627Z,146.67
2022-09-24T05:58:27.586Z,150.22
2022-09-24T05:59:27.632Z,152.97
2022-09-24T06:00:27.704Z,155.67
2022-09-24T06:01:27.642Z,154.52
2022-09-24T06:02:27.562Z,154.95
2022-09-24T06:03:27.569Z,153.53
2022-09-24T06:04:27.585Z,152.00
2022-09-24T06:05:27.531Z,150.36
2022-09-24T06:06:27.544Z,147.06
2022-09-24T06:07:27.506Z,146.54
2022-09-24T06:08:27.477Z,150.76
2022-09-24T06:09:27.449Z,152.13
2022-09-24T06:10:27.552Z,153.95
2022-09-24T06:11:27.510Z,151.31
2022-09-24T06:12:27.450Z,150.09
2022-09-24T06:13:27.389Z,149.29
2022-09-24T06:14:27.368Z,151.04
2022-09-24T06:15:27.520Z,153.39
2022-09-24T06:16:27.438Z,156.25
2022-09-24T06:17:27.384Z,152.13
2022-09-24T06:18:27.333Z,152.41
2022-09-24T06:19:27.329Z,147.06
2022-09-24T06:20:27.347Z,145.52
2022-09-24T06:21:27.316Z,144.02
2022-09-24T06:22:28.811Z,140.17
2022-09-24T06:23:27.295Z,143.28
2022-09-24T06:24:27.252Z,145.02
2022-09-24T06:25:27.224Z,147.06
2022-09-24T06:26:27.240Z,152.00
2022-09-24T06:27:27.220Z,155.52
2022-09-24T06:28:27.178Z,158.47
2022-09-24T06:29:27.209Z,161.68
2022-09-24T06:30:27.242Z,163.57
2022-09-24T06:31:27.213Z,166.01
2022-09-24T06:32:27.130Z,171.09
2022-09-24T06:33:27.171Z,172.86
2022-09-24T06:34:27.101Z,175.21
2022-09-24T06:35:27.090Z,175.21
2022-09-24T06:36:27.100Z,177.62
2022-09-24T06:37:27.092Z,177.81
2022-09-24T06:38:27.047Z,181.47
2022-09-24T06:39:27.063Z,181.08
2022-09-24T06:40:28.581Z,184.27
2022-09-24T06:41:27.075Z,183.66
2022-09-24T06:42:27.035Z,184.07
2022-09-24T06:43:27.003Z,182.26
2022-09-24T06:44:26.976Z,181.08
2022-09-24T06:45:27.013Z,181.67
2022-09-24T06:46:27.048Z,185.59
2022-09-24T06:47:26.933Z,193.10
2022-09-24T06:48:26.936Z,198.57
2022-09-24T06:49:31.461Z,203.60
2022-09-24T06:50:26.913Z,205.89
2022-09-24T06:51:26.911Z,205.76
2022-09-24T06:52:26.903Z,207.45
2022-09-24T06:53:26.876Z,207.45
2022-09-24T06:54:26.859Z,208.37
2022-09-24T06:55:26.841Z,207.06
2022-09-24T06:56:26.817Z,206.80
2022-09-24T06:57:29.037Z,210.36
2022-09-24T06:58:26.787Z,213.36
2022-09-24T06:59:26.824Z,218.02
2022-09-24T07:00:26.774Z,221.99
2022-09-24T07:01:26.865Z,223.95
2022-09-24T07:02:26.914Z,221.39
2022-09-24T07:03:26.726Z,225.02
2022-09-24T07:04:26.720Z,229.41
2022-09-24T07:05:26.733Z,227.35
2022-09-24T07:06:26.695Z,226.73
2022-09-24T07:07:26.684Z,229.25
2022-09-24T07:08:26.673Z,231.02
2022-09-24T07:09:26.657Z,231.02
2022-09-24T07:10:26.617Z,232.00
2022-09-24T07:11:26.635Z,228.30
2022-09-24T07:12:26.647Z,230.86
2022-09-24T07:13:26.600Z,232.82
2022-09-24T07:14:26.576Z,234.64
2022-09-24T07:15:26.593Z,230.70
2022-09-24T07:16:26.626Z,228.93
2022-09-24T07:17:30.036Z,226.88
2022-09-24T07:18:26.541Z,226.10
2022-09-24T07:19:26.558Z,227.98
2022-09-24T07:20:26.516Z,229.09
2022-09-24T07:21:26.512Z,230.38
2022-09-24T07:22:26.482Z,230.70
2022-09-24T07:23:26.473Z,231.83
2022-09-24T07:24:26.472Z,232.16
2022-09-24T07:25:26.455Z,232.16
2022-09-24T07:26:26.615Z,232.98
2022-09-24T07:27:26.426Z,232.16
2022-09-24T07:28:26.453Z,229.25
2022-09-24T07:29:26.382Z,225.79
2022-09-24T07:30:26.354Z,225.95
2022-09-24T07:31:26.389Z,222.89
2022-09-24T07:32:29.932Z,220.95
2022-09-24T07:33:26.347Z,219.33
2022-09-24T07:34:26.342Z,220.06
2022-09-24T07:35:26.297Z,219.18
2022-09-24T07:36:26.278Z,219.33
2022-09-24T07:37:26.285Z,221.54
2022-09-24T07:38:26.287Z,218.75
2022-09-24T07:39:26.262Z,214.75
2022-09-24T07:40:26.299Z,209.96
2022-09-24T07:41:26.255Z,208.76
2022-09-24T07:42:26.194Z,212.40
2022-09-24T07:43:26.206Z,222.74
2022-09-24T07:44:26.192Z,229.57
2022-09-24T07:45:26.181Z,232.49
2022-09-24T07:46:26.193Z,235.82
2022-09-24T07:47:26.138Z,235.31
2022-09-24T07:48:26.112Z,235.99
2022-09-24T07:49:26.112Z,240.82
2022-09-24T07:50:26.117Z,242.41
2022-09-24T07:51:26.136Z,246.04
2022-09-24T07:52:26.066Z,248.07
2022-09-24T07:53:26.058Z,248.64
2022-09-24T07:54:26.056Z,246.40
2022-09-24T07:55:26.078Z,241.88
2022-09-24T07:56:26.025Z,244.57
2022-09-24T07:57:26.031Z,241.35
2022-09-24T07:58:26.009Z,246.40
2022-09-24T07:59:25.991Z,244.76
2022-09-24T08:00:26.090Z,245.67
2022-09-24T08:01:26.030Z,245.67
2022-09-24T08:02:25.931Z,252.06
2022-09-24T08:03:25.970Z,256.98
2022-09-24T08:04:25.961Z,258.19
2022-09-24T08:05:25.927Z,258.39
2022-09-24T08:06:25.888Z,260.23
2022-09-24T08:07:25.901Z,259.82
2022-09-24T08:08:25.886Z,262.51
2022-09-24T08:09:25.910Z,264.19
2022-09-24T08:10:25.883Z,258.59
2022-09-24T08:11:25.885Z,256.18
2022-09-24T08:12:25.810Z,257.98
2022-09-24T08:13:27.920Z,264.41
2022-09-24T08:14:25.843Z,267.63
2022-09-24T08:15:25.789Z,271.38
2022-09-24T08:16:25.921Z,273.63
2022-09-24T08:17:26.102Z,274.09
2022-09-24T08:18:25.758Z,273.40
2022-09-24T08:19:25.939Z,272.73
2022-09-24T08:20:25.994Z,274.77
2022-09-24T08:21:26.707Z,278.26
2022-09-24T08:22:25.731Z,282.80
2022-09-24T08:23:25.661Z,282.80
2022-09-24T08:24:25.648Z,281.35
2022-09-24T08:25:25.641Z,286.24
2022-09-24T08:26:25.646Z,289.25
2022-09-24T08:27:25.615Z,283.53
2022-09-24T08:28:25.613Z,285.99
2022-09-24T08:29:25.583Z,295.22
2022-09-24T08:30:25.573Z,299.24
2022-09-24T08:31:25.645Z,302.26
2022-09-24T08:32:25.558Z,312.29
2022-09-24T08:33:25.566Z,318.64
2022-09-24T08:34:25.542Z,320.50
2022-09-24T08:35:25.513Z,318.64
2022-09-24T08:36:25.543Z,318.95
2022-09-24T08:37:25.484Z,322.70
2022-09-24T08:38:25.484Z,330.80
2022-09-24T08:39:25.468Z,338.62
2022-09-24T08:40:25.467Z,338.27
2022-09-24T08:41:25.415Z,343.57
2022-09-24T08:42:25.407Z,347.19
2022-09-24T08:43:25.402Z,349.77
2022-09-24T08:44:25.398Z,352.39
2022-09-24T08:45:25.367Z,355.05
2022-09-24T08:46:25.435Z,358.53
2022-09-24T08:47:25.338Z,360.49
2022-09-24T08:48:25.347Z,369.39
2022-09-24T08:49:25.336Z,385.78
2022-09-24T08:50:25.315Z,395.35
2022-09-24T08:51:27.381Z,401.28
2022-09-24T08:52:25.306Z,406.15
2022-09-24T08:53:25.294Z,406.64
2022-09-24T08:54:25.271Z,404.92
2022-09-24T08:55:25.250Z,402.73
2022-09-24T08:56:25.247Z,408.63
2022-09-24T08:57:25.212Z,413.42
2022-09-24T08:58:25.198Z,434.07
2022-09-24T08:59:25.240Z,452.56
2022-09-24T09:00:25.180Z,466.76
2022-09-24T09:01:25.276Z,469.38
2022-09-24T09:02:25.288Z,466.11
2022-09-24T09:03:25.132Z,463.52
2022-09-24T09:04:25.144Z,470.70
2022-09-24T09:05:25.111Z,471.36
2022-09-24T09:06:25.097Z,470.36
2022-09-24T09:07:25.076Z,481.53
2022-09-24T09:08:50.102Z,491.79
2022-09-24T09:09:25.080Z,502.50
2022-09-24T09:10:25.064Z,507.84
2022-09-24T09:11:25.063Z,523.32
2022-09-24T09:12:25.038Z,526.20
2022-09-24T09:13:25.042Z,527.86
2022-09-24T09:14:28.080Z,519.67
2022-09-24T09:15:25.023Z,513.68
2022-09-24T09:16:25.056Z,515.27
2022-09-24T09:17:24.943Z,504.77
2022-09-24T09:18:24.929Z,497.64
2022-09-24T09:19:24.934Z,482.57
2022-09-24T09:20:24.936Z,480.84
2022-09-24T09:21:24.893Z,485.02
2022-09-24T09:22:24.888Z,484.67
2022-09-24T09:23:24.865Z,496.90
2022-09-24T09:24:24.877Z,508.22
2022-09-24T09:25:24.886Z,516.46
2022-09-24T09:26:24.827Z,512.11
2022-09-24T09:27:24.817Z,514.08
2022-09-24T09:28:24.800Z,519.26
2022-09-24T09:29:24.782Z,538.48
2022-09-24T09:30:24.776Z,549.53
2022-09-24T09:31:24.837Z,548.63
2022-09-24T09:32:24.817Z,548.63
2022-09-24T09:33:24.740Z,540.22
2022-09-24T09:34:24.742Z,516.46
2022-09-24T09:35:24.729Z,503.63
2022-09-24T09:36:24.725Z,501.37
2022-09-24T09:37:26.116Z,505.92
2022-09-24T09:38:24.746Z,488.92
2022-09-24T09:39:24.652Z,495.07
2022-09-24T09:40:29.122Z,502.50
2022-09-24T09:41:24.673Z,508.22
2022-09-24T09:42:24.652Z,507.45
2022-09-24T09:43:24.655Z,502.12
2022-09-24T09:44:24.625Z,485.73
2022-09-24T09:45:27.898Z,482.92
2022-09-24T09:46:24.661Z,473.02
2022-09-24T09:47:24.577Z,469.70
2022-09-24T09:48:24.554Z,476.73
2022-09-24T09:49:24.554Z,498.76
2022-09-24T09:50:24.527Z,504.39
2022-09-24T09:51:24.499Z,528.70
2022-09-24T09:52:24.484Z,550.89
2022-09-24T09:53:24.506Z,553.16
2022-09-24T09:54:24.480Z,555.92
2022-09-24T09:55:24.450Z,544.61
2022-09-24T09:56:24.430Z,530.37
2022-09-24T09:57:24.419Z,522.51
2022-09-24T09:58:24.430Z,517.66
2022-09-24T09:59:29.435Z,513.68
2022-09-24T10:00:24.391Z,508.61
2022-09-24T10:01:24.384Z,510.94
2022-09-24T10:02:24.554Z,529.95
2022-09-24T10:03:24.450Z,552.71
2022-09-24T10:04:24.339Z,572.08
2022-09-24T10:05:27.416Z,590.76
2022-09-24T10:06:24.313Z,604.63
2022-09-24T10:07:24.324Z,620.90
2022-09-24T10:08:24.305Z,622.05
2022-09-24T10:09:24.282Z,651.10
2022-09-24T10:10:24.320Z,662.70
2022-09-24T10:11:24.761Z,670.67
2022-09-24T10:12:24.248Z,704.56
2022-09-24T10:13:24.211Z,724.38
2022-09-24T10:14:24.207Z,733.91
2022-09-24T10:15:24.300Z,742.88
2022-09-24T10:16:24.225Z,724.38
2022-09-24T10:17:24.152Z,737.96
2022-09-24T10:18:24.160Z,747.77
2022-09-24T10:19:24.126Z,781.34
2022-09-24T10:20:24.180Z,803.36
2022-09-24T10:21:28.183Z,814.59
2022-09-24T10:22:24.125Z,820.07
2022-09-24T10:23:24.078Z,860.08
2022-09-24T10:24:24.063Z,860.08
2022-09-24T10:25:24.066Z,852.96
2022-09-24T10:26:24.065Z,844.36
2022-09-24T10:27:24.065Z,855.68
2022-09-24T10:28:24.059Z,870.13
2022-09-24T10:29:23.997Z,838.55
2022-09-24T10:30:24.045Z,838.02
2022-09-24T10:31:24.063Z,862.29
2022-09-24T10:32:24.000Z,873.53
2022-09-24T10:33:24.416Z,926.05
2022-09-24T10:34:24.413Z,958.51
2022-09-24T10:35:24.306Z,956.46
2022-09-24T10:36:24.270Z,948.34
2022-09-24T10:37:24.034Z,921.59
2022-09-24T10:38:23.999Z,919.70
2022-09-24T10:39:23.962Z,903.57
2022-09-24T10:40:24.069Z,911.56
2022-09-24T10:41:23.969Z,924.78
2022-09-24T10:42:23.983Z,968.21
2022-09-24T10:43:23.938Z,994.07
2022-09-24T10:44:23.888Z,1006.01
2022-09-24T10:45:23.899Z,962.64
2022-09-24T10:46:23.923Z,973.13
2022-09-24T10:47:23.862Z,995.54
2022-09-24T10:48:23.850Z,968.21
2022-09-24T10:49:23.887Z,988.20
2022-09-24T10:50:23.889Z,1008.28
2022-09-24T10:51:28.791Z,1030.77
2022-09-24T10:52:23.896Z,1033.95
2022-09-24T10:53:23.959Z,1054.29
2022-09-24T10:54:23.818Z,1095.67
2022-09-24T10:55:23.772Z,1120.40
2022-09-24T10:56:23.815Z,1172.35
2022-09-24T10:57:23.784Z,1183.74
2022-09-24T10:58:23.691Z,1179.58
2022-09-24T10:59:23.684Z,1173.38
2022-09-24T11:00:23.644Z,1121.34
2022-09-24T11:01:23.711Z,1101.97
2022-09-24T11:02:23.652Z,1106.52
2022-09-24T11:03:23.650Z,1097.46
2022-09-24T11:04:23.589Z,1088.55
2022-09-24T11:05:23.552Z,1112.96
2022-09-24T11:06:23.561Z,1116.67
2022-09-24T11:07:23.496Z,1090.32
2022-09-24T11:08:23.507Z,1112.96
2022-09-24T11:09:23.511Z,1105.61
2022-09-24T11:10:23.475Z,1078.91
2022-09-24T11:11:23.469Z,1061.81
2022-09-24T11:12:23.478Z,1037.95
2022-09-24T11:13:23.469Z,1046.06
2022-09-24T11:14:23.454Z,1034.75
2022-09-24T11:15:23.439Z,1058.45
2022-09-24T11:16:23.493Z,1069.43
2022-09-24T11:17:23.381Z,1037.15
2022-09-24T11:18:23.390Z,1018.24
2022-09-24T11:19:23.380Z,1036.35
2022-09-24T11:20:23.701Z,1070.29
2022-09-24T11:21:23.659Z,1151.20
2022-09-24T11:22:23.468Z,1189.00
2022-09-24T11:23:23.528Z,1203.95
2022-09-24T11:24:23.522Z,1219.29
2022-09-24T11:25:23.339Z,1206.12
2022-09-24T11:26:23.298Z,1181.66
2022-09-24T11:27:23.271Z,1202.87
2022-09-24T11:28:23.281Z,1219.29
2022-09-24T11:29:23.210Z,1237.30
2022-09-24T11:30:23.385Z,1284.76
2022-09-24T11:31:23.251Z,1329.36
2022-09-24T11:32:23.199Z,1325.42
2022-09-24T11:33:23.417Z,1363.17
2022-09-24T11:34:23.148Z,1370.14
2022-09-24T11:35:23.168Z,1356.28
2022-09-24T11:36:23.127Z,1353.54
2022-09-24T11:37:23.143Z,1357.65
2022-09-24T11:38:23.156Z,1371.55
2022-09-24T11:39:23.111Z,1370.14
2022-09-24T11:40:23.216Z,1374.36
2022-09-24T11:41:23.083Z,1364.56
2022-09-24T11:42:23.179Z,1340.00
2022-09-24T11:43:23.083Z,1349.45
2022-09-24T11:44:23.095Z,1387.16
2022-09-24T11:45:23.081Z,1384.30
2022-09-24T11:46:23.150Z,1440.86
2022-09-24T11:47:23.211Z,1467.69
2022-09-24T11:48:23.039Z,1483.94
2022-09-24T11:49:23.023Z,1494.70
2022-09-24T11:50:23.041Z,1527.94
2022-09-24T11:51:22.957Z,1558.14
2022-09-24T11:52:22.980Z,1567.25
2022-09-24T11:53:22.927Z,1542.00
2022-09-24T11:54:22.978Z,1559.95
2022-09-24T11:55:22.892Z,1597.14
2022-09-24T11:56:23.089Z,1559.05
2022-09-24T11:57:22.936Z,1534.94
2022-09-24T11:58:22.892Z,1545.56
2022-09-24T11:59:22.907Z,1519.27
2022-09-24T12:00:22.848Z,1493.87
2022-09-24T12:01:22.929Z,1495.54
2022-09-24T12:02:22.975Z,1498.88
2022-09-24T12:03:26.182Z,1492.20
2022-09-24T12:04:22.772Z,1492.20
2022-09-24T12:05:22.902Z,1487.24
2022-09-24T12:06:22.852Z,1451.79
2022-09-24T12:07:22.773Z,1443.96
2022-09-24T12:08:22.721Z,1428.57
2022-09-24T12:09:22.700Z,1450.22
2022-09-24T12:10:22.800Z,1451.79
2022-09-24T12:11:22.703Z,1488.89
2022-09-24T12:12:22.717Z,1437.77
2022-09-24T12:13:22.945Z,1477.40
2022-09-24T12:14:22.969Z,1458.11
2022-09-24T12:15:22.743Z,1439.31
2022-09-24T12:16:22.790Z,1490.55
2022-09-24T12:17:22.780Z,1483.94
2022-09-24T12:18:22.703Z,1493.87
2022-09-24T12:19:22.777Z,1461.29
2022-09-24T12:20:22.755Z,1437.77
2022-09-24T12:21:22.556Z,1413.50
2022-09-24T12:22:22.920Z,1413.50
2022-09-24T12:23:22.588Z,1387.16
2022-09-24T12:24:22.555Z,1341.34
2022-09-24T12:25:22.516Z,1390.04
2022-09-24T12:26:22.489Z,1374.36
2022-09-24T12:27:22.492Z,1424.02
2022-09-24T12:28:22.459Z,1493.87
2022-09-24T12:29:22.477Z,1514.98
2022-09-24T12:30:22.443Z,1560.86
2022-09-24T12:31:22.519Z,1629.18
2022-09-24T12:32:22.407Z,1609.61